In Rescue
 
Open Full Screen Window  High Contrast Mode
Wind Gusting 00 knots
07
May 13, 2021 10:21 AM CDT
Weather Information
Wind Direction
  250 °
Wind Speed
  07 kt (8 mph)
Wind Gust
  00 kt (0 mph)
Variable Wind
200°
260°
Altimeter
30.36 in
Visibility
10 SM
Temperature
18° C
64° F
Dewpoint
-01° C
30° F
Humidity
28%
1hr Rain Fall
00.00 in.
24hr Rain Fall
00.00 in.
Sky Condition
Clear
VFR

METAR KSGS 131521Z AUTO 25007KT 200V260 10SM CLR 18/M01 A3036 RMK AO2 T01771013

FAA Disclaimer: The data displayed is for advisory purposes only and is not to be used for flight planning or operations.